Time;durP1;ratioP1;P1;durP2;ratioP2;P2;SDS_P1;SDS_P2;PMS_P1;PMS_P2;Temp;Humidity;BMP_temperature;BMP_pressure;BME280_temperature;BME280_humidity;BME280_pressure;Samples;Min_cycle;Max_cycle;Signal;HPM_P1;HPM_P2
2021/01/01 00:00:30;;;;;;;101.45;67.40;;;6.20;99.90;;;;;;2104044;28;20397;-73
2021/01/01 00:01:30;;;;;;;95.82;69.07;;;6.20;99.90;;;;;;2104565;28;20035;-73
2021/01/01 00:02:31;;;;;;;100.75;68.28;;;6.20;99.90;;;;;;2104081;28;20110;-74
2021/01/01 00:03:31;;;;;;;89.78;64.55;;;6.20;99.90;;;;;;2103580;28;20031;-74
2021/01/01 00:04:32;;;;;;;87.80;63.60;;;6.20;99.90;;;;;;2103889;28;20075;-74
2021/01/01 00:05:32;;;;;;;71.90;52.65;;;6.20;99.90;;;;;;2103798;28;20523;-73
2021/01/01 00:06:34;;;;;;;87.45;63.75;;;6.20;99.90;;;;;;2103855;28;20059;-73
2021/01/01 00:07:35;;;;;;;90.07;64.43;;;6.20;99.90;;;;;;2103922;28;20030;-74
2021/01/01 00:08:35;;;;;;;90.78;64.32;;;6.20;99.90;;;;;;2104289;28;20035;-74
2021/01/01 00:09:36;;;;;;;89.43;65.53;;;6.20;99.90;;;;;;2104658;28;20038;-74
2021/01/01 00:10:36;;;;;;;72.35;53.25;;;6.20;99.90;;;;;;2104499;28;20035;-73
2021/01/01 00:11:37;;;;;;;78.22;57.88;;;6.20;99.90;;;;;;2104152;28;20047;-73
2021/01/01 00:12:37;;;;;;;84.07;59.58;;;6.20;99.90;;;;;;2103937;28;20392;-74
2021/01/01 00:13:38;;;;;;;84.22;59.97;;;6.20;99.90;;;;;;2103915;28;20024;-74
2021/01/01 00:14:38;;;;;;;73.80;56.30;;;6.20;99.90;;;;;;2095926;28;20071;-74
2021/01/01 00:15:39;;;;;;;74.05;57.40;;;6.10;99.90;;;;;;2104587;28;20084;-73
2021/01/01 00:16:40;;;;;;;74.93;56.25;;;6.20;99.90;;;;;;2105154;28;20089;-74
2021/01/01 00:17:41;;;;;;;78.78;58.15;;;6.10;99.90;;;;;;2104710;28;20593;-73
2021/01/01 00:18:43;;;;;;;72.63;50.42;;;6.10;99.90;;;;;;2104911;28;20023;-73
2021/01/01 00:19:44;;;;;;;68.38;51.40;;;6.10;99.90;;;;;;2104050;28;20043;-76
2021/01/01 00:20:44;;;;;;;80.45;55.35;;;6.10;99.90;;;;;;2104455;28;20511;-73
2021/01/01 00:21:45;;;;;;;75.53;55.33;;;6.10;99.90;;;;;;2104285;28;20032;-74
2021/01/01 00:22:45;;;;;;;80.03;56.63;;;6.10;99.90;;;;;;2104297;28;20070;-73
2021/01/01 00:23:46;;;;;;;74.35;54.70;;;6.10;99.90;;;;;;2104423;28;20103;-74
2021/01/01 00:24:47;;;;;;;78.43;56.67;;;6.10;99.90;;;;;;2104822;28;20020;-74
2021/01/01 00:25:47;;;;;;;76.40;56.92;;;6.10;99.90;;;;;;2104954;28;20074;-73
2021/01/01 00:26:51;;;;;;;78.18;58.80;;;6.10;99.90;;;;;;2104104;28;20032;-74
2021/01/01 00:27:52;;;;;;;75.22;55.22;;;6.10;99.90;;;;;;2104687;28;20020;-74
2021/01/01 00:28:53;;;;;;;74.65;56.35;;;6.10;99.90;;;;;;2104732;28;20066;-75
2021/01/01 00:29:54;;;;;;;81.82;58.15;;;6.10;99.90;;;;;;2104736;28;20031;-73
2021/01/01 00:30:54;;;;;;;81.05;57.00;;;6.10;99.90;;;;;;2105026;28;20021;-73
2021/01/01 00:31:55;;;;;;;75.22;54.65;;;6.10;99.90;;;;;;2104935;28;20484;-74
2021/01/01 00:32:55;;;;;;;85.80;60.70;;;6.20;99.90;;;;;;2104064;28;20520;-74
2021/01/01 00:33:56;;;;;;;71.35;53.53;;;6.20;99.90;;;;;;2103920;28;20020;-75
2021/01/01 00:34:57;;;;;;;85.45;61.78;;;6.10;99.90;;;;;;2104059;28;20109;-76
2021/01/01 00:35:57;;;;;;;81.20;59.35;;;6.20;99.90;;;;;;2096208;28;20078;-74
2021/01/01 00:36:59;;;;;;;81.32;58.75;;;6.20;99.90;;;;;;2104076;28;20028;-74
2021/01/01 00:37:59;;;;;;;93.65;67.07;;;6.20;99.90;;;;;;2112820;28;20020;-74
2021/01/01 00:39:00;;;;;;;89.47;65.57;;;6.20;99.90;;;;;;2104826;28;20514;-73
2021/01/01 00:40:01;;;;;;;93.30;66.95;;;6.10;99.90;;;;;;2106077;28;20080;-74
2021/01/01 00:41:01;;;;;;;84.45;58.80;;;6.10;99.90;;;;;;2106279;28;20023;-74
2021/01/01 00:42:03;;;;;;;86.65;64.28;;;6.10;99.90;;;;;;2106489;28;20032;-74
2021/01/01 00:43:04;;;;;;;85.95;62.20;;;6.10;99.90;;;;;;2106308;28;20069;-76
2021/01/01 00:44:05;;;;;;;94.75;70.10;;;6.10;99.90;;;;;;2106642;28;20028;-75
2021/01/01 00:45:07;;;;;;;86.40;63.67;;;6.10;99.90;;;;;;2106270;28;20028;-74
2021/01/01 00:46:07;;;;;;;88.18;63.28;;;6.10;99.90;;;;;;2106607;28;20114;-74
2021/01/01 00:47:11;;;;;;;82.05;61.60;;;6.10;99.90;;;;;;2106179;28;20480;-74
2021/01/01 00:48:11;;;;;;;81.10;60.17;;;6.10;99.90;;;;;;2106357;28;20028;-75
2021/01/01 00:49:12;;;;;;;81.70;58.88;;;6.10;99.90;;;;;;2106463;28;20024;-73
2021/01/01 00:50:13;;;;;;;83.25;61.47;;;6.10;99.90;;;;;;2106452;28;20028;-75
2021/01/01 00:51:13;;;;;;;87.68;62.25;;;6.10;99.90;;;;;;2106510;28;20030;-74
2021/01/01 00:52:14;;;;;;;86.05;61.22;;;6.10;99.90;;;;;;2106576;28;20464;-74
2021/01/01 00:53:14;;;;;;;81.32;61.97;;;6.10;99.90;;;;;;2105876;28;20024;-75
2021/01/01 00:54:15;;;;;;;78.55;57.75;;;6.10;99.90;;;;;;2106476;28;20028;-74
2021/01/01 00:55:15;;;;;;;83.90;60.50;;;6.10;99.90;;;;;;2106252;28;20426;-74
2021/01/01 00:56:23;;;;;;;79.13;57.80;;;6.10;99.90;;;;;;2106689;28;20028;-74
2021/01/01 00:57:24;;;;;;;84.20;63.08;;;6.10;99.90;;;;;;2106249;28;20103;-73
2021/01/01 00:58:24;;;;;;;81.68;57.47;;;6.10;99.90;;;;;;2106450;28;20464;-74
2021/01/01 00:59:25;;;;;;;85.70;60.45;;;6.10;99.90;;;;;;2106105;28;20586;-74
2021/01/01 01:00:25;;;;;;;82.68;56.28;;;6.10;99.90;;;;;;2106421;28;20054;-74
2021/01/01 01:01:27;;;;;;;80.35;56.00;;;6.10;99.90;;;;;;2106177;28;20031;-76
2021/01/01 01:02:28;;;;;;;78.13;55.72;;;6.10;99.90;;;;;;2106354;28;20046;-73
2021/01/01 01:03:28;;;;;;;80.05;56.53;;;6.10;99.90;;;;;;2105821;28;20024;-74
2021/01/01 01:04:29;;;;;;;79.45;58.78;;;6.10;99.90;;;;;;2106452;28;20031;-73
2021/01/01 01:05:29;;;;;;;79.03;55.60;;;6.10;99.90;;;;;;2106168;28;20115;-74
2021/01/01 01:06:30;;;;;;;79.55;57.53;;;6.10;99.90;;;;;;2106353;28;20035;-74
2021/01/01 01:07:30;;;;;;;82.40;57.00;;;6.10;99.90;;;;;;2106082;28;20445;-73
2021/01/01 01:08:31;;;;;;;73.88;53.65;;;6.10;99.90;;;;;;2105727;28;20115;-74
2021/01/01 01:09:31;;;;;;;75.43;53.65;;;6.10;99.90;;;;;;2105749;28;20047;-74
2021/01/01 01:10:32;;;;;;;83.30;59.25;;;6.10;99.90;;;;;;2106149;28;20524;-75
2021/01/01 01:11:33;;;;;;;77.38;54.95;;;6.10;99.90;;;;;;2106303;28;20028;-75
2021/01/01 01:12:33;;;;;;;80.75;57.03;;;6.10;99.90;;;;;;2106161;28;20032;-73
2021/01/01 01:13:34;;;;;;;81.40;56.72;;;6.10;99.90;;;;;;2105935;28;20020;-75
2021/01/01 01:14:34;;;;;;;78.15;55.80;;;6.10;99.90;;;;;;2106268;28;20060;-76
2021/01/01 01:15:35;;;;;;;78.15;57.78;;;6.10;99.90;;;;;;2106340;28;20034;-74
2021/01/01 01:16:36;;;;;;;75.40;55.65;;;6.10;99.90;;;;;;2106178;28;20032;-74
2021/01/01 01:17:39;;;;;;;78.50;54.88;;;6.10;99.90;;;;;;2106264;28;20027;-73
2021/01/01 01:18:40;;;;;;;81.20;55.80;;;6.10;99.90;;;;;;2106280;28;20024;-74
2021/01/01 01:19:41;;;;;;;77.00;54.33;;;6.10;99.90;;;;;;2106224;28;20468;-73
2021/01/01 01:20:41;;;;;;;82.00;55.60;;;6.10;99.90;;;;;;2106351;28;20020;-74
2021/01/01 01:21:42;;;;;;;73.25;51.35;;;6.10;99.90;;;;;;2105825;28;20031;-74
2021/01/01 01:22:42;;;;;;;76.18;55.75;;;6.10;99.90;;;;;;2105485;28;20074;-74
2021/01/01 01:23:43;;;;;;;76.55;55.60;;;6.10;99.90;;;;;;2106018;28;20097;-74
2021/01/01 01:24:43;;;;;;;74.20;53.42;;;6.10;99.90;;;;;;2105529;28;20024;-76
2021/01/01 01:25:44;;;;;;;76.78;53.53;;;6.10;99.90;;;;;;2105315;28;20032;-73
2021/01/01 01:26:45;;;;;;;77.25;54.33;;;6.10;99.90;;;;;;2106379;28;20078;-73
2021/01/01 01:27:45;;;;;;;76.25;53.53;;;6.10;99.90;;;;;;2106031;28;20110;-74
2021/01/01 01:28:47;;;;;;;77.13;54.45;;;6.10;99.90;;;;;;2106194;28;20032;-73
2021/01/01 01:29:48;;;;;;;76.13;53.67;;;6.10;99.90;;;;;;2105556;28;20024;-74
2021/01/01 01:30:49;;;;;;;78.53;55.95;;;6.10;99.90;;;;;;2105661;28;20063;-74
2021/01/01 01:31:50;;;;;;;70.07;50.33;;;6.10;99.90;;;;;;2106282;28;20042;-74
2021/01/01 01:32:51;;;;;;;75.13;51.70;;;6.10;99.90;;;;;;2106176;28;20046;-74
2021/01/01 01:33:51;;;;;;;67.90;50.80;;;6.10;99.90;;;;;;2105936;28;20024;-74
2021/01/01 01:34:52;;;;;;;69.05;50.20;;;6.10;99.90;;;;;;2105576;28;20024;-74
2021/01/01 01:35:52;;;;;;;75.28;53.20;;;6.20;99.90;;;;;;2105832;28;20150;-74
2021/01/01 01:36:53;;;;;;;69.10;48.90;;;6.10;99.90;;;;;;2105538;28;20061;-73
2021/01/01 01:37:53;;;;;;;72.00;50.20;;;6.10;99.90;;;;;;2105506;28;20109;-74
2021/01/01 01:38:54;;;;;;;67.25;46.33;;;6.10;99.90;;;;;;2106052;28;20069;-73
2021/01/01 01:39:54;;;;;;;61.05;45.65;;;6.10;99.90;;;;;;2106103;28;20024;-74
2021/01/01 01:40:55;;;;;;;63.38;46.53;;;6.10;99.90;;;;;;2106229;28;20048;-76
2021/01/01 01:41:56;;;;;;;58.72;43.40;;;6.10;99.90;;;;;;2106382;28;20507;-74
2021/01/01 01:42:56;;;;;;;66.60;48.00;;;6.10;99.90;;;;;;2105861;28;20443;-73
2021/01/01 01:43:57;;;;;;;64.32;46.15;;;6.10;99.90;;;;;;2105721;28;20471;-73
2021/01/01 01:44:57;;;;;;;65.57;47.47;;;6.10;99.90;;;;;;2106173;28;20020;-73
2021/01/01 01:45:58;;;;;;;65.03;46.78;;;6.10;99.90;;;;;;2106381;28;20020;-74
2021/01/01 01:46:59;;;;;;;61.80;45.83;;;6.10;99.90;;;;;;2105977;28;20066;-75
2021/01/01 01:48:01;;;;;;;66.85;44.78;;;6.10;99.90;;;;;;2105997;28;20494;-74
2021/01/01 01:49:02;;;;;;;62.90;45.38;;;6.20;99.90;;;;;;2105879;28;20095;-75
2021/01/01 01:50:04;;;;;;;66.38;46.45;;;6.20;99.90;;;;;;2105874;28;20024;-75
2021/01/01 01:51:06;;;;;;;60.75;46.35;;;6.20;99.90;;;;;;2105611;28;20024;-74
2021/01/01 01:52:07;;;;;;;59.70;43.47;;;6.10;99.90;;;;;;2105486;28;20095;-74
2021/01/01 01:53:09;;;;;;;63.95;45.08;;;6.20;99.90;;;;;;2105222;28;20020;-74
2021/01/01 01:54:10;;;;;;;66.15;48.15;;;6.20;99.90;;;;;;2096876;28;20508;-75
2021/01/01 01:55:11;;;;;;;68.20;50.13;;;6.20;99.90;;;;;;2097045;28;20028;-74
2021/01/01 01:56:12;;;;;;;60.03;43.25;;;6.20;99.90;;;;;;2106279;28;20035;-73
2021/01/01 01:57:12;;;;;;;67.55;48.85;;;6.20;99.90;;;;;;2105236;28;20024;-74
2021/01/01 01:58:14;;;;;;;64.03;46.72;;;6.20;99.90;;;;;;2105448;28;20032;-73
2021/01/01 01:59:18;;;;;;;69.82;47.20;;;6.20;99.90;;;;;;2105908;28;20044;-73
2021/01/01 02:00:44;;;;;;;57.38;42.95;;;6.20;99.90;;;;;;2105992;28;20095;-73
2021/01/01 02:01:45;;;;;;;63.97;45.88;;;6.20;99.90;;;;;;2106026;28;20024;-78
2021/01/01 02:02:45;;;;;;;55.92;42.97;;;6.10;99.90;;;;;;2106204;28;20032;-75
2021/01/01 02:03:46;;;;;;;58.50;44.45;;;6.10;99.90;;;;;;2105563;28;20047;-73
2021/01/01 02:04:47;;;;;;;65.65;46.90;;;6.10;99.90;;;;;;2105644;28;20100;-75
2021/01/01 02:05:48;;;;;;;58.15;43.25;;;6.10;99.90;;;;;;2105827;28;20028;-76
2021/01/01 02:06:49;;;;;;;63.05;46.80;;;6.10;99.90;;;;;;2104815;28;20021;-76
2021/01/01 02:07:49;;;;;;;59.58;44.17;;;6.10;99.90;;;;;;2096634;28;20511;-75
2021/01/01 02:08:53;;;;;;;61.58;45.25;;;6.10;99.90;;;;;;2104753;28;20081;-76
2021/01/01 02:09:54;;;;;;;62.75;45.42;;;6.10;99.90;;;;;;2104024;28;20020;-76
2021/01/01 02:10:57;;;;;;;60.35;45.38;;;6.10;99.90;;;;;;2105084;28;20539;-76
2021/01/01 02:11:57;;;;;;;64.95;45.95;;;6.10;99.90;;;;;;2104673;28;20418;-76
2021/01/01 02:12:59;;;;;;;60.38;43.88;;;6.10;99.90;;;;;;2105178;28;20145;-76
2021/01/01 02:14:01;;;;;;;60.78;44.92;;;6.10;99.90;;;;;;2105545;28;20625;-76
2021/01/01 02:15:01;;;;;;;59.85;42.53;;;6.10;99.90;;;;;;2105746;28;20018;-76
2021/01/01 02:16:04;;;;;;;57.88;42.47;;;6.10;99.90;;;;;;2105427;28;20073;-76
2021/01/01 02:17:05;;;;;;;59.28;44.00;;;6.10;99.90;;;;;;2105859;28;20368;-75
2021/01/01 02:18:05;;;;;;;60.53;44.47;;;6.00;99.90;;;;;;2105788;28;20111;-76
2021/01/01 02:19:06;;;;;;;56.83;42.70;;;6.10;99.90;;;;;;2105337;28;20436;-75
2021/01/01 02:20:10;;;;;;;57.85;42.47;;;6.00;99.90;;;;;;2096678;28;20025;-76
2021/01/01 02:21:16;;;;;;;58.35;43.53;;;6.00;99.90;;;;;;2105306;28;20070;-76
2021/01/01 02:22:16;;;;;;;60.22;44.10;;;6.00;99.90;;;;;;2105710;28;20099;-75
2021/01/01 02:23:17;;;;;;;52.63;40.28;;;6.00;99.90;;;;;;2105477;28;20088;-75
2021/01/01 02:24:17;;;;;;;55.65;42.28;;;6.00;99.90;;;;;;2105125;28;20012;-74
2021/01/01 02:25:18;;;;;;;59.92;44.58;;;6.00;99.90;;;;;;2096761;28;20085;-75
2021/01/01 02:26:19;;;;;;;56.88;42.13;;;6.00;99.90;;;;;;2105237;28;20020;-76
2021/01/01 02:27:20;;;;;;;55.78;43.20;;;6.00;99.90;;;;;;2105564;28;20095;-75
2021/01/01 02:28:20;;;;;;;56.92;41.45;;;5.90;99.90;;;;;;2105817;28;20372;-77
2021/01/01 02:29:21;;;;;;;54.22;40.38;;;6.00;99.90;;;;;;2105049;28;20032;-75
2021/01/01 02:30:21;;;;;;;58.90;43.40;;;5.90;99.90;;;;;;2104852;28;20032;-76
2021/01/01 02:31:22;;;;;;;56.53;41.72;;;5.90;99.90;;;;;;2104929;28;20016;-76
2021/01/01 02:32:22;;;;;;;53.47;39.67;;;5.90;99.90;;;;;;2105051;28;20039;-75
2021/01/01 02:33:23;;;;;;;52.75;40.78;;;5.90;99.90;;;;;;2104769;28;20495;-75
2021/01/01 02:34:24;;;;;;;58.22;41.03;;;5.90;99.90;;;;;;2105465;28;20020;-75
2021/01/01 02:35:24;;;;;;;52.08;38.67;;;5.90;99.90;;;;;;2105733;28;20032;-74
2021/01/01 02:36:25;;;;;;;51.88;37.80;;;5.90;99.90;;;;;;2105719;28;20077;-75
2021/01/01 02:37:25;;;;;;;50.30;36.95;;;5.90;99.90;;;;;;2105489;28;20032;-75
2021/01/01 02:38:26;;;;;;;48.65;37.17;;;5.90;99.90;;;;;;2105187;28;20440;-75
2021/01/01 02:39:27;;;;;;;49.78;36.75;;;5.90;99.90;;;;;;2105679;28;20094;-75
2021/01/01 02:40:27;;;;;;;49.38;37.75;;;5.80;99.90;;;;;;2105497;28;20044;-74
2021/01/01 02:41:28;;;;;;;47.92;37.03;;;5.80;99.90;;;;;;2105419;28;20388;-75
2021/01/01 02:42:28;;;;;;;47.60;35.75;;;5.80;99.90;;;;;;2105536;28;20046;-76
2021/01/01 02:43:29;;;;;;;53.20;38.42;;;5.80;99.90;;;;;;2105242;28;20437;-75
2021/01/01 02:44:30;;;;;;;51.35;39.25;;;5.80;99.90;;;;;;2105477;28;20111;-76
2021/01/01 02:45:30;;;;;;;51.40;37.88;;;5.80;99.90;;;;;;2105014;28;20028;-76
2021/01/01 02:46:31;;;;;;;52.42;39.90;;;5.80;99.90;;;;;;2104641;28;20021;-75
2021/01/01 02:47:33;;;;;;;59.35;40.42;;;5.80;99.90;;;;;;2105242;28;20038;-74
2021/01/01 02:48:33;;;;;;;53.17;39.35;;;5.80;99.90;;;;;;2105149;28;20103;-75
2021/01/01 02:49:34;;;;;;;53.60;39.33;;;5.80;99.90;;;;;;2105053;28;20028;-75
2021/01/01 02:50:35;;;;;;;52.65;40.45;;;5.70;99.90;;;;;;2104975;28;20059;-77
2021/01/01 02:51:36;;;;;;;53.40;39.33;;;5.70;99.90;;;;;;2104865;28;20146;-76
2021/01/01 02:52:36;;;;;;;52.42;38.88;;;5.70;99.90;;;;;;2104865;28;20027;-76
2021/01/01 02:53:37;;;;;;;53.50;38.83;;;5.70;99.90;;;;;;2104388;28;20030;-74
2021/01/01 02:54:37;;;;;;;53.55;40.08;;;5.70;99.90;;;;;;2104725;28;20024;-74
2021/01/01 02:55:38;;;;;;;50.47;38.45;;;5.70;99.90;;;;;;2104951;28;20031;-76
2021/01/01 02:56:39;;;;;;;52.50;38.75;;;5.70;99.90;;;;;;2104740;28;20108;-75
2021/01/01 02:57:40;;;;;;;50.63;38.55;;;5.70;99.90;;;;;;2104494;28;20020;-75
2021/01/01 02:58:40;;;;;;;49.20;37.92;;;5.60;99.90;;;;;;2105073;28;20036;-75
2021/01/01 02:59:41;;;;;;;50.40;38.45;;;5.60;99.90;;;;;;2105286;28;20095;-75
2021/01/01 03:00:46;;;;;;;53.63;38.45;;;5.60;99.90;;;;;;2105740;28;20466;-74
2021/01/01 03:01:47;;;;;;;53.40;39.08;;;5.60;99.90;;;;;;2105865;28;20030;-75
2021/01/01 03:02:47;;;;;;;50.30;37.83;;;5.60;99.90;;;;;;2105602;28;20074;-75
2021/01/01 03:03:48;;;;;;;51.08;37.78;;;5.60;99.90;;;;;;2105121;28;20052;-75
2021/01/01 03:04:48;;;;;;;56.25;41.15;;;5.60;99.90;;;;;;2106163;28;20066;-75
2021/01/01 03:05:49;;;;;;;51.70;39.20;;;5.60;99.90;;;;;;2106088;28;20178;-75
2021/01/01 03:06:49;;;;;;;54.67;40.30;;;5.50;99.90;;;;;;2106191;28;20042;-75
2021/01/01 03:07:50;;;;;;;55.38;40.25;;;5.50;99.90;;;;;;2105744;28;20028;-77
2021/01/01 03:08:51;;;;;;;59.88;40.13;;;5.50;99.90;;;;;;2106114;28;20099;-75
2021/01/01 03:09:52;;;;;;;56.67;41.35;;;5.50;99.90;;;;;;2106072;28;20025;-75
2021/01/01 03:10:52;;;;;;;53.75;39.95;;;5.50;99.90;;;;;;2105340;28;20028;-74
2021/01/01 03:11:53;;;;;;;53.22;38.88;;;5.50;99.90;;;;;;2097036;28;20028;-72
2021/01/01 03:12:53;;;;;;;56.75;39.15;;;5.50;99.90;;;;;;2105455;28;20099;-75
2021/01/01 03:13:54;;;;;;;51.60;39.17;;;5.50;99.90;;;;;;2105312;28;20074;-75
2021/01/01 03:14:54;;;;;;;54.63;39.00;;;5.50;99.90;;;;;;2105735;28;20027;-74
2021/01/01 03:15:55;;;;;;;53.95;39.08;;;5.40;99.90;;;;;;2105063;28;20173;-74
2021/01/01 03:16:55;;;;;;;51.75;38.42;;;5.50;99.90;;;;;;2105295;28;20511;-74
2021/01/01 03:17:56;;;;;;;49.95;37.28;;;5.40;99.90;;;;;;2105933;28;20034;-74
2021/01/01 03:18:56;;;;;;;50.88;39.65;;;5.50;99.90;;;;;;2106004;28;20091;-74
2021/01/01 03:19:57;;;;;;;53.97;40.08;;;5.40;99.90;;;;;;2105721;28;20024;-73
2021/01/01 03:20:57;;;;;;;52.58;38.90;;;5.40;99.90;;;;;;2106204;28;20095;-75
2021/01/01 03:21:58;;;;;;;55.17;38.50;;;5.40;99.90;;;;;;2105426;28;20103;-76
2021/01/01 03:22:58;;;;;;;48.13;36.40;;;5.40;99.90;;;;;;2096746;28;20028;-76
2021/01/01 03:23:59;;;;;;;51.33;36.40;;;5.40;99.90;;;;;;2105228;28;20476;-73
2021/01/01 03:25:00;;;;;;;51.95;39.20;;;5.40;99.90;;;;;;2106098;28;20043;-73
2021/01/01 03:26:00;;;;;;;53.70;36.95;;;5.40;99.90;;;;;;2105958;28;20026;-75
2021/01/01 03:27:01;;;;;;;49.70;36.80;;;5.40;99.90;;;;;;2105704;28;20055;-75
2021/01/01 03:28:01;;;;;;;47.88;36.80;;;5.40;99.90;;;;;;2106041;28;20062;-76
2021/01/01 03:29:02;;;;;;;50.45;37.13;;;5.40;99.90;;;;;;2105471;28;20667;-74
2021/01/01 03:30:05;;;;;;;45.35;34.90;;;5.30;99.90;;;;;;2105790;28;20103;-75
2021/01/01 03:31:07;;;;;;;48.25;35.50;;;5.30;99.90;;;;;;2105723;28;20024;-76
2021/01/01 03:32:07;;;;;;;48.90;36.20;;;5.30;99.90;;;;;;2105958;28;20028;-73
2021/01/01 03:33:08;;;;;;;46.35;37.08;;;5.30;99.90;;;;;;2104852;28;20548;-74
2021/01/01 03:34:09;;;;;;;48.75;36.35;;;5.30;99.90;;;;;;2096920;28;20016;-74
2021/01/01 03:35:10;;;;;;;51.22;38.38;;;5.30;99.90;;;;;;2088445;28;20671;-74
2021/01/01 03:36:11;;;;;;;48.88;36.75;;;5.30;99.90;;;;;;2097076;28;20049;-73
2021/01/01 03:37:12;;;;;;;47.42;35.33;;;5.30;99.90;;;;;;2105672;28;20031;-74
2021/01/01 03:38:12;;;;;;;47.10;34.22;;;5.30;99.90;;;;;;2105887;28;20064;-73
2021/01/01 03:39:13;;;;;;;46.33;35.22;;;5.30;99.90;;;;;;2105950;28;20012;-74
2021/01/01 03:40:13;;;;;;;52.25;37.53;;;5.30;99.90;;;;;;2104612;28;20505;-72
2021/01/01 03:41:14;;;;;;;50.08;37.67;;;5.30;99.90;;;;;;2105228;28;20495;-74
2021/01/01 03:42:15;;;;;;;51.53;37.60;;;5.30;99.90;;;;;;2105723;28;20134;-73
2021/01/01 03:43:15;;;;;;;49.05;35.97;;;5.30;99.90;;;;;;2105417;28;20059;-75
2021/01/01 03:44:16;;;;;;;50.70;36.55;;;5.30;99.90;;;;;;2105092;28;20027;-75
2021/01/01 03:45:17;;;;;;;50.05;37.90;;;5.30;99.90;;;;;;2105094;28;20052;-73
2021/01/01 03:46:17;;;;;;;46.85;36.35;;;5.30;99.90;;;;;;2105048;28;20024;-73
2021/01/01 03:47:18;;;;;;;49.00;35.45;;;5.30;99.90;;;;;;2105063;28;20084;-74
2021/01/01 03:48:18;;;;;;;54.35;37.63;;;5.30;99.90;;;;;;2105848;28;20024;-74
2021/01/01 03:49:19;;;;;;;50.95;37.05;;;5.30;99.90;;;;;;2105578;28;20027;-75
2021/01/01 03:50:20;;;;;;;48.25;36.65;;;5.30;99.90;;;;;;2105642;28;20113;-73
2021/01/01 03:51:21;;;;;;;52.22;37.25;;;5.30;99.90;;;;;;2096574;28;20154;-73
2021/01/01 03:52:21;;;;;;;53.75;38.35;;;5.30;99.90;;;;;;2096842;28;20016;-73
2021/01/01 03:53:22;;;;;;;55.75;40.83;;;5.30;99.90;;;;;;2105384;28;20103;-77
2021/01/01 03:54:23;;;;;;;53.55;38.88;;;5.30;99.90;;;;;;2105843;28;20575;-75
2021/01/01 03:55:23;;;;;;;55.53;39.25;;;5.30;99.90;;;;;;2105670;28;20451;-73
2021/01/01 03:56:24;;;;;;;52.25;38.28;;;5.30;99.90;;;;;;2105122;28;20119;-74
2021/01/01 03:57:24;;;;;;;54.80;41.47;;;5.30;99.90;;;;;;2105065;28;20024;-75
2021/01/01 03:58:26;;;;;;;53.00;39.10;;;5.30;99.90;;;;;;2105612;28;20504;-74
2021/01/01 03:59:26;;;;;;;55.40;40.17;;;5.30;99.90;;;;;;2105764;28;20016;-73
2021/01/01 04:00:27;;;;;;;56.22;42.30;;;5.30;99.90;;;;;;2104722;28;20062;-74
2021/01/01 04:01:28;;;;;;;51.95;37.67;;;5.30;99.90;;;;;;2105031;28;20504;-73
2021/01/01 04:02:28;;;;;;;53.58;39.63;;;5.30;99.90;;;;;;2104677;28;20016;-74
2021/01/01 04:03:29;;;;;;;51.75;38.67;;;5.30;99.90;;;;;;2104427;28;20046;-73
2021/01/01 04:04:29;;;;;;;57.70;41.55;;;5.30;99.90;;;;;;2105403;28;20065;-74
2021/01/01 04:05:30;;;;;;;57.50;41.13;;;5.30;99.90;;;;;;2105467;28;20115;-78
2021/01/01 04:06:30;;;;;;;57.38;41.60;;;5.30;99.90;;;;;;2105307;28;20020;-74
2021/01/01 04:07:31;;;;;;;52.45;39.22;;;5.30;99.90;;;;;;2105293;28;20050;-73
2021/01/01 04:08:31;;;;;;;56.47;41.75;;;5.30;99.90;;;;;;2105198;28;20039;-73
2021/01/01 04:09:32;;;;;;;56.70;40.25;;;5.30;99.90;;;;;;2105135;28;20527;-76
2021/01/01 04:10:32;;;;;;;53.05;40.13;;;5.30;99.90;;;;;;2104467;28;20034;-75
2021/01/01 04:11:37;;;;;;;53.95;39.15;;;5.30;99.90;;;;;;2104712;28;20491;-73
2021/01/01 04:12:37;;;;;;;52.78;38.47;;;5.30;99.90;;;;;;2105216;28;20041;-74
2021/01/01 04:13:38;;;;;;;55.50;39.28;;;5.30;99.90;;;;;;2104473;28;20375;-73
2021/01/01 04:14:39;;;;;;;52.47;38.22;;;5.30;99.90;;;;;;2104969;28;20463;-75
2021/01/01 04:15:39;;;;;;;51.65;39.13;;;5.30;99.90;;;;;;2105256;28;20036;-72
2021/01/01 04:16:44;;;;;;;53.45;37.25;;;5.30;99.90;;;;;;2104692;28;20032;-73
2021/01/01 04:17:44;;;;;;;51.80;38.22;;;5.30;99.90;;;;;;2104313;28;20108;-73
2021/01/01 04:18:45;;;;;;;52.75;38.22;;;5.30;99.90;;;;;;2105286;28;20027;-73
2021/01/01 04:19:45;;;;;;;50.25;38.40;;;5.30;99.90;;;;;;2104473;28;20027;-73
2021/01/01 04:20:46;;;;;;;53.17;40.13;;;5.30;99.90;;;;;;2104032;28;20095;-74
2021/01/01 04:21:47;;;;;;;50.78;39.28;;;5.30;99.90;;;;;;2105307;28;20020;-73
2021/01/01 04:22:48;;;;;;;53.22;39.15;;;5.30;99.90;;;;;;2105048;28;20052;-74
2021/01/01 04:23:48;;;;;;;54.75;39.75;;;5.30;99.90;;;;;;2104726;28;20020;-73
2021/01/01 04:24:49;;;;;;;50.40;37.90;;;5.30;99.90;;;;;;2105036;28;20020;-75
2021/01/01 04:25:49;;;;;;;51.95;38.28;;;5.30;99.90;;;;;;2105171;28;20056;-73
2021/01/01 04:26:50;;;;;;;45.33;35.42;;;5.30;99.90;;;;;;2105218;28;20038;-75
2021/01/01 04:27:50;;;;;;;47.90;36.80;;;5.30;99.90;;;;;;2104711;28;20036;-74
2021/01/01 04:28:51;;;;;;;50.45;38.03;;;5.30;99.90;;;;;;2105057;28;20026;-75
2021/01/01 04:29:51;;;;;;;51.45;39.00;;;5.30;99.90;;;;;;2104398;28;20038;-72
2021/01/01 04:30:52;;;;;;;52.53;38.58;;;5.30;99.90;;;;;;2096222;28;20029;-76
2021/01/01 04:31:53;;;;;;;52.78;39.03;;;5.30;99.90;;;;;;2104358;28;20048;-73
2021/01/01 04:32:53;;;;;;;49.97;36.33;;;5.30;99.90;;;;;;2104617;28;20032;-73
2021/01/01 04:33:54;;;;;;;47.00;35.00;;;5.30;99.90;;;;;;2104589;28;20020;-73
2021/01/01 04:34:54;;;;;;;49.20;36.00;;;5.30;99.90;;;;;;2104764;28;20071;-73
2021/01/01 04:35:55;;;;;;;53.92;38.40;;;5.30;99.90;;;;;;2104351;28;20115;-73
2021/01/01 04:36:55;;;;;;;53.47;38.90;;;5.30;99.90;;;;;;2104116;28;20534;-73
2021/01/01 04:37:56;;;;;;;50.83;37.10;;;5.30;99.90;;;;;;2104811;28;20415;-73
2021/01/01 04:38:57;;;;;;;51.90;38.22;;;5.30;99.90;;;;;;2104996;28;20056;-73
2021/01/01 04:39:57;;;;;;;51.28;37.38;;;5.30;99.90;;;;;;2104120;28;20024;-75
2021/01/01 04:40:58;;;;;;;50.20;37.45;;;5.30;99.90;;;;;;2104444;28;20056;-73
2021/01/01 04:42:02;;;;;;;52.67;39.20;;;5.30;99.90;;;;;;2104954;28;20017;-73
2021/01/01 04:43:03;;;;;;;48.72;35.42;;;5.40;99.90;;;;;;2104553;28;20483;-74
2021/01/01 04:44:05;;;;;;;46.55;36.13;;;5.30;99.90;;;;;;2104514;28;20025;-73
2021/01/01 04:45:07;;;;;;;47.47;36.15;;;5.30;99.90;;;;;;2104896;28;20470;-74
2021/01/01 04:46:08;;;;;;;42.58;33.38;;;5.30;99.90;;;;;;2104054;28;20020;-73
2021/01/01 04:47:11;;;;;;;51.25;36.78;;;5.40;99.90;;;;;;2104256;28;20066;-75
2021/01/01 04:48:12;;;;;;;52.72;37.97;;;5.40;99.90;;;;;;2104957;28;20046;-74
2021/01/01 04:49:13;;;;;;;51.33;36.92;;;5.40;99.90;;;;;;2104868;28;20100;-74
2021/01/01 04:50:15;;;;;;;50.70;37.03;;;5.40;99.90;;;;;;2104662;28;20016;-73
2021/01/01 04:51:16;;;;;;;50.00;35.55;;;5.30;99.90;;;;;;2104848;28;20114;-73
2021/01/01 04:52:17;;;;;;;46.05;35.55;;;5.30;99.90;;;;;;2104698;28;20103;-73
2021/01/01 04:53:22;;;;;;;48.47;36.33;;;5.30;99.90;;;;;;2104311;28;20085;-73
2021/01/01 04:54:30;;;;;;;50.42;35.05;;;5.40;99.90;;;;;;2104816;28;20028;-74
2021/01/01 04:55:31;;;;;;;47.38;34.10;;;5.40;99.90;;;;;;2104835;28;20020;-75
2021/01/01 04:56:32;;;;;;;46.88;34.38;;;5.30;99.90;;;;;;2104819;28;20499;-73
2021/01/01 04:57:32;;;;;;;49.50;33.97;;;5.30;99.90;;;;;;2104597;28;20035;-73
2021/01/01 04:58:34;;;;;;;46.85;35.38;;;5.30;99.90;;;;;;2104877;28;20024;-73
2021/01/01 04:59:35;;;;;;;42.70;33.30;;;5.40;99.90;;;;;;2104715;28;20544;-73
2021/01/01 05:00:35;;;;;;;43.90;32.72;;;5.40;99.90;;;;;;2104422;28;20035;-74
2021/01/01 05:01:41;;;;;;;47.38;34.20;;;5.30;99.90;;;;;;2104891;28;20028;-74
2021/01/01 05:02:41;;;;;;;45.08;33.17;;;5.40;99.90;;;;;;2104847;28;20694;-74
2021/01/01 05:03:42;;;;;;;46.53;33.42;;;5.40;99.90;;;;;;2104398;28;20103;-75
2021/01/01 05:04:46;;;;;;;45.38;33.47;;;5.30;99.90;;;;;;2104800;28;20020;-73
2021/01/01 05:05:48;;;;;;;46.50;33.20;;;5.40;99.90;;;;;;2104776;28;20023;-75
2021/01/01 05:06:49;;;;;;;46.03;34.50;;;5.40;99.90;;;;;;2104651;28;20071;-75
2021/01/01 05:07:49;;;;;;;47.67;35.55;;;5.30;99.90;;;;;;2104728;28;20035;-73
2021/01/01 05:08:50;;;;;;;47.85;34.45;;;5.40;99.90;;;;;;2104349;28;20028;-74
2021/01/01 05:09:51;;;;;;;45.97;34.47;;;5.40;99.90;;;;;;2104803;28;20035;-73
2021/01/01 05:10:52;;;;;;;45.90;33.50;;;5.40;99.90;;;;;;2104509;28;20030;-74
2021/01/01 05:12:06;;;;;;;45.00;33.10;;;5.40;99.90;;;;;;2104817;28;20028;-73
2021/01/01 05:13:11;;;;;;;44.60;32.83;;;5.40;99.90;;;;;;2104562;28;20031;-74